createdAt,value
2018-12-10T00:00:56.681Z,7.30
2018-12-10T00:03:32.749Z,6.72
2018-12-10T00:06:04.905Z,7.95
2018-12-10T00:08:34.353Z,6.53
2018-12-10T00:11:04.227Z,8.15
2018-12-10T00:13:32.971Z,6.55
2018-12-10T00:16:01.786Z,6.97
2018-12-10T00:18:30.552Z,6.17
2018-12-10T00:20:59.844Z,5.75
2018-12-10T00:23:28.569Z,7.60
2018-12-10T00:25:57.334Z,6.10
2018-12-10T00:28:26.023Z,8.65
2018-12-10T00:30:55.841Z,6.30
2018-12-10T00:33:25.325Z,7.05
2018-12-10T00:35:54.010Z,4.50
2018-12-10T00:38:22.772Z,7.08
2018-12-10T00:40:51.568Z,7.30
2018-12-10T00:43:20.373Z,5.53
2018-12-10T00:45:49.209Z,5.70
2018-12-10T00:48:17.891Z,5.95
2018-12-10T00:50:47.623Z,6.40
2018-12-10T00:53:16.542Z,4.08
2018-12-10T00:55:45.375Z,6.03
2018-12-10T00:58:14.091Z,5.53
2018-12-10T01:00:42.803Z,5.55
2018-12-10T01:03:11.631Z,5.50
2018-12-10T01:05:40.383Z,3.98
2018-12-10T01:08:09.081Z,5.60
2018-12-10T01:10:37.890Z,6.00
2018-12-10T01:13:06.598Z,6.75
2018-12-10T01:15:35.427Z,5.92
2018-12-10T01:18:04.155Z,6.55
2018-12-10T01:20:32.939Z,5.00
2018-12-10T01:23:01.633Z,4.15
2018-12-10T01:25:30.373Z,4.40
2018-12-10T01:27:59.071Z,4.25
2018-12-10T01:30:27.888Z,3.75
2018-12-10T01:32:56.584Z,6.08
2018-12-10T01:35:25.347Z,4.90
2018-12-10T01:37:54.121Z,3.17
2018-12-10T01:40:22.998Z,3.85
2018-12-10T01:42:51.711Z,4.47
2018-12-10T01:45:20.428Z,4.33
2018-12-10T01:47:49.225Z,4.87
2018-12-10T01:50:18.044Z,3.77
2018-12-10T01:52:46.705Z,3.08
2018-12-10T01:55:15.467Z,5.17
2018-12-10T01:57:44.244Z,3.55
2018-12-10T02:00:12.955Z,5.17
2018-12-10T02:02:41.776Z,4.95
2018-12-10T02:05:10.576Z,2.87
2018-12-10T02:07:39.549Z,4.85
2018-12-10T02:10:08.958Z,4.40
2018-12-10T02:12:37.728Z,4.17
2018-12-10T02:15:06.602Z,2.77
2018-12-10T02:17:35.428Z,3.17
2018-12-10T02:20:04.583Z,4.00
2018-12-10T02:22:33.313Z,4.28
2018-12-10T02:25:02.092Z,6.75
2018-12-10T02:27:30.821Z,4.53
2018-12-10T02:29:59.517Z,4.62
2018-12-10T02:32:28.292Z,3.80
2018-12-10T02:34:56.991Z,4.87
2018-12-10T02:37:25.684Z,4.08
2018-12-10T02:39:54.459Z,4.15
2018-12-10T02:42:23.276Z,4.78
2018-12-10T02:44:52.090Z,2.65
2018-12-10T02:47:20.744Z,3.08
2018-12-10T02:49:49.519Z,3.92
2018-12-10T02:52:18.323Z,2.42
2018-12-10T02:54:47.034Z,4.00
2018-12-10T02:57:15.723Z,2.90
2018-12-10T02:59:44.482Z,4.40
2018-12-10T03:02:13.231Z,4.12
2018-12-10T03:04:41.933Z,4.45
2018-12-10T03:07:10.775Z,3.33
2018-12-10T03:09:39.467Z,3.05
2018-12-10T03:12:08.245Z,2.05
2018-12-10T03:14:37.000Z,3.30
2018-12-10T03:17:05.728Z,2.67
2018-12-10T03:19:34.411Z,3.75
2018-12-10T03:22:03.164Z,4.05
2018-12-10T03:24:31.972Z,4.03
2018-12-10T03:27:00.722Z,3.95
2018-12-10T03:29:29.415Z,3.95
2018-12-10T03:31:59.722Z,4.03
2018-12-10T03:34:29.580Z,5.42
2018-12-10T03:36:58.300Z,3.58
2018-12-10T03:39:27.126Z,2.08
2018-12-10T03:41:55.827Z,3.47
2018-12-10T03:44:24.628Z,4.30
2018-12-10T03:46:53.663Z,3.15
2018-12-10T03:49:22.474Z,3.87
2018-12-10T03:51:51.243Z,5.05
2018-12-10T03:54:19.944Z,2.62
2018-12-10T03:56:48.671Z,2.65
2018-12-10T03:59:17.456Z,3.00
2018-12-10T04:01:46.147Z,3.37
2018-12-10T04:04:14.927Z,2.83
2018-12-10T04:06:43.726Z,3.80
2018-12-10T04:09:12.478Z,2.55
2018-12-10T04:11:41.185Z,3.62
2018-12-10T04:14:09.934Z,2.27
2018-12-10T04:16:38.667Z,2.83
2018-12-10T04:19:08.841Z,3.20
2018-12-10T04:21:37.690Z,2.45
2018-12-10T04:24:06.522Z,2.70
2018-12-10T04:26:35.428Z,2.95
2018-12-10T04:29:04.384Z,2.20
2018-12-10T04:31:33.081Z,2.83
2018-12-10T04:34:01.793Z,2.62
2018-12-10T04:36:30.705Z,2.45
2018-12-10T04:38:59.461Z,2.47
2018-12-10T04:41:28.177Z,3.80
2018-12-10T04:43:56.868Z,3.80
2018-12-10T04:46:25.654Z,3.10
2018-12-10T04:48:54.457Z,2.58
2018-12-10T04:51:23.164Z,2.45
2018-12-10T04:53:51.866Z,2.60
2018-12-10T04:56:20.638Z,1.77
2018-12-10T04:58:49.356Z,2.42
2018-12-10T05:01:18.171Z,2.05
2018-12-10T05:03:47.115Z,2.10
2018-12-10T05:06:15.934Z,2.42
2018-12-10T05:08:45.531Z,3.05
2018-12-10T05:11:14.293Z,3.67
2018-12-10T05:13:43.013Z,3.65
2018-12-10T05:16:11.775Z,2.25
2018-12-10T05:18:40.477Z,2.85
2018-12-10T05:21:09.311Z,2.62
2018-12-10T05:23:37.983Z,2.42
2018-12-10T05:26:06.763Z,2.17
2018-12-10T05:28:35.520Z,3.33
2018-12-10T05:31:04.309Z,1.72
2018-12-10T05:33:33.072Z,1.75
2018-12-10T05:36:01.853Z,2.15
2018-12-10T05:38:30.616Z,2.77
2018-12-10T05:40:59.312Z,2.60
2018-12-10T05:43:28.003Z,2.00
2018-12-10T05:45:57.782Z,3.00
2018-12-10T05:48:43.439Z,2.62
2018-12-10T05:51:17.870Z,2.45
2018-12-10T05:53:46.758Z,2.85
2018-12-10T05:56:16.190Z,1.67
2018-12-10T05:58:45.031Z,2.02
2018-12-10T06:01:13.889Z,2.50
2018-12-10T06:03:42.749Z,2.60
2018-12-10T06:06:11.809Z,1.90
2018-12-10T06:08:40.831Z,1.90
2018-12-10T06:11:09.824Z,1.65
2018-12-10T06:13:38.712Z,1.80
2018-12-10T06:16:07.579Z,2.30
2018-12-10T06:18:36.487Z,1.62
2018-12-10T06:21:05.383Z,1.32
2018-12-10T06:23:34.273Z,2.75
2018-12-10T06:26:03.777Z,2.67
2018-12-10T06:28:33.939Z,1.55
2018-12-10T06:31:02.929Z,2.00
2018-12-10T06:33:32.286Z,1.20
2018-12-10T06:36:01.104Z,1.92
2018-12-10T06:38:30.049Z,2.15
2018-12-10T06:40:58.955Z,1.95
2018-12-10T06:43:28.987Z,1.80
2018-12-10T06:45:57.795Z,1.55
2018-12-10T06:48:26.632Z,0.90
2018-12-10T06:50:55.547Z,1.55
2018-12-10T06:53:24.545Z,1.77
2018-12-10T06:55:53.471Z,1.85
2018-12-10T06:58:22.414Z,1.42
2018-12-10T07:03:26.531Z,1.55
2018-12-10T07:05:55.423Z,1.67
2018-12-10T07:08:25.513Z,2.20
2018-12-10T07:10:55.049Z,2.00
2018-12-10T07:13:23.949Z,1.42
2018-12-10T07:15:52.771Z,1.52
2018-12-10T07:18:21.731Z,1.35
2018-12-10T07:20:50.723Z,1.75
2018-12-10T07:23:19.604Z,1.27
2018-12-10T07:25:48.605Z,1.35
2018-12-10T07:28:17.661Z,2.35
2018-12-10T07:30:46.438Z,1.57
2018-12-10T07:33:15.378Z,1.62
2018-12-10T07:35:44.507Z,3.27
2018-12-10T07:38:13.299Z,1.92
2018-12-10T07:40:42.146Z,1.15
2018-12-10T07:43:11.021Z,1.00
2018-12-10T07:45:39.879Z,1.50
2018-12-10T07:48:09.047Z,2.47
2018-12-10T07:50:38.867Z,1.15
2018-12-10T07:53:08.440Z,1.50
2018-12-10T07:55:37.519Z,1.30
2018-12-10T07:58:06.351Z,2.00
2018-12-10T08:00:36.408Z,1.80
2018-12-10T08:03:05.337Z,2.00
2018-12-10T08:05:34.131Z,1.90
2018-12-10T08:08:03.007Z,1.55
2018-12-10T08:10:31.861Z,1.50
2018-12-10T08:13:00.716Z,1.52
2018-12-10T08:15:30.987Z,1.72
2018-12-10T08:17:59.799Z,1.55
2018-12-10T08:20:29.541Z,1.50
2018-12-10T08:22:59.216Z,1.95
2018-12-10T08:25:27.997Z,1.55
2018-12-10T08:27:56.900Z,1.60
2018-12-10T08:30:25.717Z,1.87
2018-12-10T08:32:54.778Z,1.50
2018-12-10T08:35:23.628Z,1.40
2018-12-10T08:37:53.250Z,1.62
2018-12-10T08:40:23.325Z,1.55
2018-12-10T08:42:52.981Z,1.10
2018-12-10T08:45:21.893Z,1.47
2018-12-10T08:47:50.680Z,1.80
2018-12-10T08:50:19.547Z,1.10
2018-12-10T08:52:48.305Z,1.55
2018-12-10T08:55:17.150Z,1.27
2018-12-10T08:57:45.997Z,1.10
2018-12-10T09:00:14.821Z,1.45
2018-12-10T09:02:43.711Z,1.40
2018-12-10T09:05:12.473Z,2.17
2018-12-10T09:07:41.317Z,1.50
2018-12-10T09:10:10.238Z,1.20
2018-12-10T09:12:46.755Z,2.37
2018-12-10T09:15:09.850Z,1.17
2018-12-10T09:17:38.629Z,1.55
2018-12-10T09:20:07.462Z,1.87
2018-12-10T09:22:36.156Z,1.32
2018-12-10T09:25:05.841Z,0.85
2018-12-10T09:27:34.565Z,1.10
2018-12-10T09:30:03.983Z,1.55
2018-12-10T09:32:34.099Z,1.32
2018-12-10T09:35:03.058Z,1.25
2018-12-10T09:37:31.832Z,1.57
2018-12-10T09:40:00.644Z,1.45
2018-12-10T09:42:30.138Z,1.22
2018-12-10T09:44:58.937Z,1.55
2018-12-10T09:47:28.495Z,2.37
2018-12-10T09:49:57.332Z,1.32
2018-12-10T09:52:26.103Z,1.60
2018-12-10T09:54:54.906Z,1.95
2018-12-10T09:57:24.767Z,1.40
2018-12-10T09:59:53.796Z,1.07
2018-12-10T10:02:22.605Z,1.27
2018-12-10T10:04:51.492Z,1.10
2018-12-10T10:07:28.366Z,1.22
2018-12-10T10:09:52.353Z,1.10
2018-12-10T10:12:21.199Z,1.98
2018-12-10T10:14:49.971Z,0.90
2018-12-10T10:17:18.823Z,1.10
2018-12-10T10:19:47.769Z,1.25
2018-12-10T10:22:16.566Z,1.15
2018-12-10T10:24:45.302Z,1.32
2018-12-10T10:27:14.000Z,1.15
2018-12-10T10:29:42.816Z,1.02
2018-12-10T10:32:11.599Z,1.17
2018-12-10T10:34:40.411Z,0.82
2018-12-10T10:37:09.229Z,2.60
2018-12-10T10:39:38.039Z,1.27
2018-12-10T10:42:08.784Z,1.50
2018-12-10T10:44:37.632Z,1.10
2018-12-10T10:47:06.489Z,1.27
2018-12-10T10:49:35.210Z,1.00
2018-12-10T10:52:04.855Z,1.57
2018-12-10T10:54:33.679Z,0.90
2018-12-10T10:57:02.472Z,1.37
2018-12-10T10:59:31.440Z,1.57
2018-12-10T11:02:04.393Z,1.45
2018-12-10T11:04:37.526Z,1.30
2018-12-10T11:07:04.040Z,1.40
2018-12-10T11:09:32.763Z,0.93
2018-12-10T11:12:01.480Z,1.22
2018-12-10T11:14:30.330Z,1.30
2018-12-10T11:16:59.105Z,1.80
2018-12-10T11:19:27.938Z,1.17
2018-12-10T11:21:56.912Z,2.37
2018-12-10T11:24:25.591Z,1.10
2018-12-10T11:26:54.394Z,1.98
2018-12-10T11:29:23.120Z,1.10
2018-12-10T11:31:52.421Z,1.00
2018-12-10T11:34:21.210Z,1.27
2018-12-10T11:36:50.047Z,0.90
2018-12-10T11:39:18.719Z,0.85
2018-12-10T11:41:47.434Z,1.20
2018-12-10T11:44:16.511Z,1.55
2018-12-10T11:46:45.183Z,1.10
2018-12-10T11:49:13.897Z,1.45
2018-12-10T11:51:42.743Z,1.20
2018-12-10T11:54:11.556Z,1.47
2018-12-10T11:56:40.331Z,0.90
2018-12-10T11:59:09.125Z,1.10
2018-12-10T12:01:37.832Z,1.42
2018-12-10T12:04:06.546Z,2.45
2018-12-10T12:06:37.248Z,1.77
2018-12-10T12:09:06.665Z,1.22
2018-12-10T12:11:37.381Z,1.37
2018-12-10T12:14:06.264Z,2.10
2018-12-10T12:16:35.050Z,1.12
2018-12-10T12:19:11.100Z,1.20
2018-12-10T12:21:34.587Z,1.22
2018-12-10T12:24:03.633Z,1.10
2018-12-10T12:26:32.514Z,0.90
2018-12-10T12:29:01.203Z,1.42
2018-12-10T12:31:30.123Z,0.95
2018-12-10T12:33:59.990Z,0.85
2018-12-10T12:36:28.935Z,1.90
2018-12-10T12:38:57.609Z,0.90
2018-12-10T12:41:26.881Z,2.02
2018-12-10T12:43:55.685Z,1.90
2018-12-10T12:46:24.460Z,0.80
2018-12-10T12:48:53.177Z,0.80
2018-12-10T12:51:22.997Z,1.20
2018-12-10T12:53:51.818Z,1.02
2018-12-10T12:56:20.648Z,1.40
2018-12-10T12:58:49.458Z,2.42
2018-12-10T13:01:18.119Z,1.40
2018-12-10T13:03:47.016Z,0.95
2018-12-10T13:06:15.922Z,1.55
2018-12-10T13:08:44.770Z,1.40
2018-12-10T13:11:13.497Z,1.75
2018-12-10T13:13:42.220Z,1.62
2018-12-10T13:16:10.971Z,1.65
2018-12-10T13:18:39.737Z,1.40
2018-12-10T13:21:09.031Z,1.27
2018-12-10T13:23:37.949Z,1.45
2018-12-10T13:26:06.759Z,1.30
2018-12-10T13:28:35.599Z,1.80
2018-12-10T13:31:04.376Z,1.25
2018-12-10T13:33:33.132Z,1.45
2018-12-10T13:36:02.977Z,1.50
2018-12-10T13:38:36.722Z,1.10
2018-12-10T13:41:02.549Z,1.35
2018-12-10T13:43:31.427Z,1.00
2018-12-10T13:46:01.482Z,1.02
2018-12-10T13:48:30.287Z,1.25
2018-12-10T13:50:59.118Z,2.10
2018-12-10T13:53:27.846Z,1.10
2018-12-10T13:55:56.635Z,1.00
2018-12-10T13:58:25.386Z,1.17
2018-12-10T14:00:56.478Z,1.40
2018-12-10T14:03:26.259Z,1.07
2018-12-10T14:05:55.119Z,1.00
2018-12-10T14:08:23.825Z,1.15
2018-12-10T14:10:52.862Z,1.50
2018-12-10T14:13:21.589Z,1.25
2018-12-10T14:15:50.477Z,0.70
2018-12-10T14:18:19.467Z,1.35
2018-12-10T14:20:48.463Z,1.15
2018-12-10T14:23:17.289Z,0.95
2018-12-10T14:25:46.034Z,1.32
2018-12-10T14:28:15.028Z,1.27
2018-12-10T14:30:43.994Z,1.10
2018-12-10T14:33:12.837Z,1.10
2018-12-10T14:35:41.616Z,1.40
2018-12-10T14:38:10.587Z,0.90
2018-12-10T14:40:39.374Z,1.20
2018-12-10T14:43:08.246Z,1.10
2018-12-10T14:45:37.097Z,1.22
2018-12-10T14:48:05.955Z,1.00
2018-12-10T14:50:35.883Z,1.55
2018-12-10T14:53:04.738Z,2.55
2018-12-10T14:55:33.646Z,1.70
2018-12-10T14:58:02.376Z,0.98
2018-12-10T15:00:31.295Z,1.12
2018-12-10T15:03:00.132Z,1.40
2018-12-10T15:05:28.888Z,1.47
2018-12-10T15:07:57.730Z,1.00
2018-12-10T15:10:27.311Z,1.55
2018-12-10T15:12:56.233Z,1.20
2018-12-10T15:15:25.008Z,2.22
2018-12-10T15:17:53.729Z,0.90
2018-12-10T15:20:22.538Z,1.30
2018-12-10T15:22:51.274Z,1.32
2018-12-10T15:25:20.187Z,0.90
2018-12-10T15:27:49.725Z,2.25
2018-12-10T15:30:18.712Z,1.60
2018-12-10T15:32:47.460Z,1.72
2018-12-10T15:35:17.393Z,1.37
2018-12-10T15:37:46.246Z,1.72
2018-12-10T15:40:17.179Z,1.05
2018-12-10T15:42:46.028Z,1.15
2018-12-10T15:45:14.810Z,1.30
2018-12-10T15:47:43.601Z,1.35
2018-12-10T15:50:12.311Z,0.80
2018-12-10T15:52:41.672Z,1.42
2018-12-10T15:55:10.438Z,1.45
2018-12-10T15:57:39.182Z,2.65
2018-12-10T16:00:10.614Z,1.40
2018-12-10T16:02:40.631Z,2.35
2018-12-10T16:05:09.932Z,1.10
2018-12-10T16:07:38.701Z,1.47
2018-12-10T16:10:09.031Z,0.80
2018-12-10T16:12:37.893Z,1.75
2018-12-10T16:15:07.333Z,1.62
2018-12-10T16:17:37.097Z,1.27
2018-12-10T16:20:09.011Z,1.27
2018-12-10T16:22:37.914Z,3.15
2018-12-10T16:25:06.896Z,1.22
2018-12-10T16:27:35.933Z,1.90
2018-12-10T16:30:06.373Z,1.55
2018-12-10T16:32:35.127Z,1.30
2018-12-10T16:35:04.022Z,1.35
2018-12-10T16:37:33.898Z,1.60
2018-12-10T16:40:02.660Z,1.50
2018-12-10T16:42:31.478Z,1.40
2018-12-10T16:45:00.379Z,2.55
2018-12-10T16:47:29.223Z,1.40
2018-12-10T16:49:57.938Z,0.95
2018-12-10T16:52:26.741Z,1.35
2018-12-10T16:54:55.617Z,1.12
2018-12-10T16:57:24.509Z,1.62
2018-12-10T16:59:53.326Z,2.10
2018-12-10T17:02:22.138Z,1.80
2018-12-10T17:04:51.509Z,1.70
2018-12-10T17:07:20.577Z,1.40
2018-12-10T17:09:49.361Z,1.98
2018-12-10T17:12:18.301Z,1.20
2018-12-10T17:14:47.063Z,1.55
2018-12-10T17:17:15.842Z,1.92
2018-12-10T17:19:47.023Z,1.40
2018-12-10T17:22:15.776Z,2.17
2018-12-10T17:24:44.650Z,1.50
2018-12-10T17:27:13.588Z,2.55
2018-12-10T17:29:42.386Z,1.22
2018-12-10T17:32:11.253Z,1.85
2018-12-10T17:34:40.185Z,1.90
2018-12-10T17:37:08.932Z,2.65
2018-12-10T17:39:37.750Z,1.92
2018-12-10T17:42:06.710Z,2.65
2018-12-10T17:44:35.523Z,1.90
2018-12-10T17:47:08.774Z,2.72
2018-12-10T17:49:35.463Z,3.15
2018-12-10T17:52:04.309Z,1.95
2018-12-10T17:54:33.077Z,2.02
2018-12-10T17:57:01.874Z,2.67
2018-12-10T17:59:30.631Z,2.77
2018-12-10T18:01:59.442Z,2.40
2018-12-10T18:04:28.096Z,2.25
2018-12-10T18:06:56.852Z,2.77
2018-12-10T18:09:27.157Z,2.65
2018-12-10T18:11:56.011Z,2.25
2018-12-10T18:14:27.011Z,1.50
2018-12-10T18:16:55.834Z,2.27
2018-12-10T18:19:24.849Z,2.62
2018-12-10T18:21:53.698Z,1.15
2018-12-10T18:24:22.434Z,1.15
2018-12-10T18:26:51.306Z,1.80
2018-12-10T18:29:20.015Z,1.52
2018-12-10T18:31:48.783Z,1.45
2018-12-10T18:34:17.627Z,1.10
2018-12-10T18:36:46.383Z,1.70
2018-12-10T18:39:15.141Z,1.20
2018-12-10T18:41:44.032Z,1.27
2018-12-10T18:44:12.760Z,2.05
2018-12-10T18:46:41.579Z,1.10
2018-12-10T18:49:10.459Z,1.77
2018-12-10T18:51:39.253Z,1.87
2018-12-10T18:54:08.203Z,1.85
2018-12-10T18:56:37.044Z,2.00
2018-12-10T18:59:05.851Z,1.90
2018-12-10T19:01:34.509Z,1.57
2018-12-10T19:04:03.323Z,2.35
2018-12-10T19:06:32.182Z,1.70
2018-12-10T19:09:01.193Z,1.90
2018-12-10T19:11:30.215Z,1.75
2018-12-10T19:13:58.946Z,1.50
2018-12-10T19:16:27.877Z,1.87
2018-12-10T19:18:56.718Z,2.87
2018-12-10T19:21:25.433Z,1.20
2018-12-10T19:23:54.281Z,1.77
2018-12-10T19:26:23.183Z,1.27
2018-12-10T19:28:51.897Z,1.75
2018-12-10T19:31:20.665Z,1.40
2018-12-10T19:33:49.489Z,1.57
2018-12-10T19:36:18.392Z,1.80
2018-12-10T19:38:47.225Z,1.10
2018-12-10T19:41:17.361Z,1.40
2018-12-10T19:43:46.173Z,1.80
2018-12-10T19:46:15.068Z,2.25
2018-12-10T19:48:44.012Z,1.77
2018-12-10T19:51:13.228Z,2.00
2018-12-10T19:53:41.951Z,2.10
2018-12-10T19:56:10.730Z,1.87
2018-12-10T19:58:39.548Z,1.25
2018-12-10T20:01:08.380Z,2.37
2018-12-10T20:03:38.263Z,1.45
2018-12-10T20:06:18.369Z,1.72
2018-12-10T20:08:47.216Z,1.75
2018-12-10T20:11:16.576Z,1.30
2018-12-10T20:13:45.420Z,1.27
2018-12-10T20:16:14.119Z,0.98
2018-12-10T20:18:42.933Z,1.25
2018-12-10T20:21:11.897Z,1.67
2018-12-10T20:23:40.809Z,1.10
2018-12-10T20:26:10.539Z,1.80
2018-12-10T20:28:39.296Z,1.47
2018-12-10T20:31:08.113Z,1.37
2018-12-10T20:33:36.914Z,1.77
2018-12-10T20:36:06.039Z,1.82
2018-12-10T20:38:34.886Z,2.30
2018-12-10T20:41:03.830Z,1.40
2018-12-10T20:43:33.121Z,1.90
2018-12-10T20:46:01.953Z,1.75
2018-12-10T20:48:30.786Z,1.65
2018-12-10T20:50:59.585Z,2.30
2018-12-10T20:53:28.275Z,1.67
2018-12-10T20:55:57.023Z,1.95
2018-12-10T20:58:25.790Z,1.92
2018-12-10T21:00:54.681Z,2.83
2018-12-10T21:03:23.485Z,1.10
2018-12-10T21:05:57.641Z,2.55
2018-12-10T21:08:26.410Z,1.45
2018-12-10T21:10:55.352Z,1.60
2018-12-10T21:13:24.198Z,1.50
2018-12-10T21:15:52.897Z,2.00
2018-12-10T21:18:21.606Z,1.37
2018-12-10T21:20:50.709Z,1.52
2018-12-10T21:23:19.438Z,2.15
2018-12-10T21:25:48.323Z,2.00
2018-12-10T21:28:17.121Z,1.45
2018-12-10T21:30:45.954Z,1.40
2018-12-10T21:33:14.956Z,1.57
2018-12-10T21:35:43.993Z,1.98
2018-12-10T21:38:12.741Z,1.35
2018-12-10T21:40:41.503Z,1.30
2018-12-10T21:43:10.307Z,1.20
2018-12-10T21:45:39.165Z,2.00
2018-12-10T21:48:08.256Z,1.98
2018-12-10T21:50:36.943Z,1.02
2018-12-10T21:53:05.787Z,1.52
2018-12-10T21:55:34.538Z,1.30
2018-12-10T21:58:03.374Z,1.45
2018-12-10T22:00:32.114Z,1.65
2018-12-10T22:03:00.927Z,1.87
2018-12-10T22:05:29.667Z,1.47
2018-12-10T22:07:58.521Z,1.45
2018-12-10T22:10:27.400Z,1.22
2018-12-10T22:12:56.325Z,1.60
2018-12-10T22:15:26.109Z,1.52
2018-12-10T22:17:54.869Z,1.92
2018-12-10T22:20:23.590Z,1.70
2018-12-10T22:22:52.357Z,1.80
2018-12-10T22:25:21.128Z,1.45
2018-12-10T22:27:49.938Z,1.20
2018-12-10T22:30:18.808Z,2.40
2018-12-10T22:32:47.553Z,2.25
2018-12-10T22:35:16.385Z,1.10
2018-12-10T22:37:45.070Z,1.65
2018-12-10T22:40:13.907Z,1.32
2018-12-10T22:42:42.721Z,1.77
2018-12-10T22:45:11.502Z,1.82
2018-12-10T22:47:40.219Z,1.40
2018-12-10T22:50:09.127Z,1.42
2018-12-10T22:52:38.441Z,1.37
2018-12-10T22:55:07.346Z,1.98
2018-12-10T22:57:36.093Z,1.27
2018-12-10T23:00:07.294Z,2.08
2018-12-10T23:02:37.942Z,2.30
2018-12-10T23:05:06.844Z,1.37
2018-12-10T23:07:37.565Z,2.30
2018-12-10T23:10:06.615Z,1.70
2018-12-10T23:12:35.369Z,1.22
2018-12-10T23:15:04.437Z,1.32
2018-12-10T23:17:33.262Z,2.40
2018-12-10T23:20:01.972Z,1.25
2018-12-10T23:22:30.864Z,1.65
2018-12-10T23:24:59.564Z,2.50
2018-12-10T23:27:28.445Z,1.12
2018-12-10T23:29:57.148Z,1.10
2018-12-10T23:32:25.973Z,1.00
2018-12-10T23:34:54.692Z,1.40
2018-12-10T23:37:23.442Z,1.72
2018-12-10T23:39:52.183Z,1.35
2018-12-10T23:42:21.069Z,1.45
2018-12-10T23:44:55.439Z,1.30
2018-12-10T23:47:24.130Z,1.60
2018-12-10T23:49:52.832Z,0.93
2018-12-10T23:52:21.535Z,1.15
2018-12-10T23:54:50.445Z,1.75
2018-12-10T23:57:19.176Z,1.47
2018-12-10T23:59:47.969Z,1.10
